Madsen, Canada
Current Conditions -  °F | °C
As of 9:00 AM on Friday 19 Dec 2014 (Local Time) from CYRL Reporting Station
Overcast Overcast  
Wind Chill:   Ceiling: 800
Heat Index: 18°   Visibility: 15mi
Dew Point: 14°   Wind: 6mph
Humidity: 86%   Direction: 130°SE
Pressure: 30.13"   Gusts: NA
Location:  50.97°N, 93.92°W
Report Text: CYRL 191500Z 13005KT 15SM OVC008 M08/M10 A3013 RMK ST8 SLP238
Loading
Personal Weather Stations






























Interactive Weather Map New forecast layout! Learn more

10-Day Weather Forecast

Advertisements
Track Severe Weather on mobile